Terminal Aerodrome Forecast
Issued by NWS El Paso, TX

Home | Current Version | Previous Version | Text Only | Print | Product List | Glossary On
Versions: 1 2 3 4 5 6 7 8 9 10 11 12 13 14 15 16 17 18 19 20 21 22
000
FTUS44 KEPZ 241130
TAFELP
TAF
KELP 241130Z 2412/2512 13007KT P6SM SCT100 SCT140 BKN250
     FM241500 16005KT P6SM FEW120 SCT250
     FM242100 25011KT P6SM FEW090 FEW250
     FM250400 VRB06KT P6SM FEW130 FEW250=

USA.gov is the U.S. government's official web portal to all federal, state and local government web resources and services.